Terminal Aerodrome Forecast
Issued by NWS Duluth, MN

Home | Current Version | Previous Version | Text Only | Print | Product List | Glossary On
Versions: 1 2 3 4 5 6 7 8 9 10 11 12 13 14 15 16
000
FTUS43 KDLH 020500
TAFDLH
TAF
KDLH 020535Z 0206/0306 VRB03KT P6SM FEW250
     FM021800 20011G19KT P6SM SKC
     FM030100 VRB04KT P6SM SCT120=

USA.gov is the U.S. government's official web portal to all federal, state and local government web resources and services.